Giddings, Texas
Current Conditions -  °F | °C
As of 12:55 PM on Monday 20 Oct 2014 (Local Time) from KGYB Reporting Station
Clear Clear  
Wind Chill: 26°   Ceiling: Unl
Heat Index: 26°   Visibility: 10mi
Dew Point: 16°   Wind: 5mph
Humidity: 54%   Direction: 40°NE
Pressure: 30.1"   Gusts: NA
Location:  30.18°N, 96.94°W
Report Text: KGYB 201755Z AUTO 04004KT 10SM CLR 26/16 A3010 RMK AO2 T02560156 10256 20154
Loading
Personal Weather Stations






























Interactive Weather Map
Tropical Storm Tracking
New forecast layout! Learn more

10-Day Weather Forecast

Advertisements
Track Severe Weather on mobile